»·PEaware :: ASA344 KSFO-KLAX

ASA344 :: KSFO-KLAX

FLIGHT INFORMATION

Flight Status: Arrived
Operator:
Alaska Airlines
More flights by this operator :: More flights under this callsign
Pilot: Anonymous 25291 (25291)
Aircraft: BOEING 737-800
(B738)
More flights by this aircraft type
Origin: KSFO San Francisco Intl
United States
Destination: KLAX Los Angeles Intl
United States
More flights between these airports :: More routes between these airports
Route: +SSTIK4 EBAYE BURGL BAYST1
File this flight plan on PilotEdge
Remarks:
Altitude:
(Current/Filed)
35,000ft
Speed:
(Current/Filed)
450kts
Departed: 13-Feb-20 06:57 PM
Arrived: 13-Feb-20 08:00 PM
Distance/Time
Traveled:
293nm/1:02
Distance/Time
To Go:
Arrived

Flight Plot

Page will automatically refresh every two minutes.

Flight plan parsing failed; only flown route is shown


Map Options




Map Legend


Flown Route
Filed Route
Departure Airport
Arrival Airport
Navaid (VOR, NDB)
Fix

Horizontal Profiles

Position Reports

Time Latitude Longitude Heading Altitude Ground
Speed
13-Feb-20 18:28 37.616737 -122.381716 22 33ft 0kts
13-Feb-20 18:29 37.616737 -122.381716 22 33ft 0kts
13-Feb-20 18:30 37.616737 -122.381716 22 33ft 0kts
13-Feb-20 18:31 37.616737 -122.381716 22 33ft 0kts
13-Feb-20 18:32 37.616737 -122.381716 22 33ft 0kts
13-Feb-20 18:33 37.616737 -122.381716 22 33ft 0kts
13-Feb-20 18:34 37.616737 -122.381716 22 33ft 0kts
13-Feb-20 18:35 37.616737 -122.381716 22 33ft 0kts
13-Feb-20 18:36 37.616737 -122.381716 22 33ft 0kts
13-Feb-20 18:37 37.616737 -122.381716 22 33ft 0kts
13-Feb-20 18:38 37.616737 -122.381716 22 33ft 0kts
13-Feb-20 18:39 37.616737 -122.381716 22 33ft 0kts
13-Feb-20 18:40 37.616737 -122.381716 22 33ft 0kts
13-Feb-20 18:41 37.616737 -122.381716 22 33ft 0kts
13-Feb-20 18:42 37.616737 -122.381716 22 33ft 0kts
13-Feb-20 18:43 37.616737 -122.381716 22 34ft 0kts
13-Feb-20 18:44 37.616737 -122.381716 22 34ft 0kts
13-Feb-20 18:45 37.616737 -122.381716 22 34ft 0kts
13-Feb-20 18:46 37.616737 -122.381716 22 34ft 0kts
13-Feb-20 18:47 37.616737 -122.381716 22 34ft 0kts
13-Feb-20 18:48 37.616737 -122.381716 22 34ft 0kts
13-Feb-20 18:49 37.616309 -122.381922 20 33ft 2kts
13-Feb-20 18:50 37.616000 -122.382373 116 34ft 0kts
13-Feb-20 18:51 37.616036 -122.382449 119 33ft 0kts
13-Feb-20 18:52 37.616036 -122.382449 119 33ft 0kts
13-Feb-20 18:53 37.615086 -122.380781 180 33ft 12kts
13-Feb-20 18:54 37.610155 -122.383976 214 33ft 20kts
13-Feb-20 18:55 37.608147 -122.382874 93 33ft 11kts
13-Feb-20 18:56 37.626680 -122.370292 26 75ft 176kts
13-Feb-20 18:57 37.675415 -122.360502 334 2311ft 210kts
13-Feb-20 18:58 37.709602 -122.423128 249 5002ft 270kts
13-Feb-20 18:59 37.640733 -122.452833 185 8719ft 285kts
13-Feb-20 19:00 37.558723 -122.463637 188 10628ft 300kts
13-Feb-20 19:01 37.471479 -122.444168 145 12997ft 344kts
13-Feb-20 19:02 37.402126 -122.355182 133 15652ft 365kts
13-Feb-20 19:04 37.331669 -122.259417 132 18173ft 381kts
13-Feb-20 19:05 37.257744 -122.159208 133 20180ft 404kts
13-Feb-20 19:06 37.180183 -122.054347 132 22365ft 415kts
13-Feb-20 19:07 37.100004 -121.946308 132 24287ft 428kts
13-Feb-20 19:08 37.017358 -121.835310 132 26020ft 440kts
13-Feb-20 19:09 36.932371 -121.721536 131 27594ft 451kts
13-Feb-20 19:10 36.845575 -121.605776 131 28983ft 462kts
13-Feb-20 19:11 36.756744 -121.487740 131 30233ft 472kts
13-Feb-20 19:12 36.666566 -121.368389 131 31764ft 471kts
13-Feb-20 19:13 36.576627 -121.249674 132 33248ft 470kts
13-Feb-20 19:14 36.487421 -121.132418 132 34913ft 461kts
13-Feb-20 19:15 36.400578 -121.016408 130 35117ft 448kts
13-Feb-20 19:16 36.319565 -120.900714 130 35088ft 442kts
13-Feb-20 19:17 36.238971 -120.785276 130 35082ft 444kts
13-Feb-20 19:18 36.157883 -120.669345 130 35082ft 445kts
13-Feb-20 19:19 36.076687 -120.553663 130 35079ft 445kts
13-Feb-20 19:20 35.995496 -120.438373 130 35082ft 444kts
13-Feb-20 19:20 35.928122 -120.342984 131 35079ft 444kts
13-Feb-20 19:22 35.833000 -120.241509 145 35085ft 438kts
13-Feb-20 19:23 35.729352 -120.157393 147 35078ft 446kts
13-Feb-20 19:23 35.641883 -120.090158 148 35082ft 443kts
13-Feb-20 19:25 35.519793 -119.997553 148 35085ft 443kts
13-Feb-20 19:26 35.414503 -119.918241 148 35092ft 443kts
13-Feb-20 19:26 35.326977 -119.852528 148 35090ft 443kts
13-Feb-20 19:27 35.227513 -119.766353 142 35102ft 437kts
13-Feb-20 19:29 35.113091 -119.659839 142 34184ft 452kts
13-Feb-20 19:29 35.030228 -119.582673 142 31764ft 448kts
13-Feb-20 19:30 34.932773 -119.492148 142 29430ft 430kts
13-Feb-20 19:31 34.836165 -119.405130 143 28330ft 434kts
13-Feb-20 19:32 34.749378 -119.327749 143 26351ft 417kts
13-Feb-20 19:33 34.656475 -119.246738 144 24215ft 411kts
13-Feb-20 19:34 34.565153 -119.167868 144 21970ft 395kts
13-Feb-20 19:35 34.477856 -119.090736 143 19785ft 381kts
13-Feb-20 19:36 34.393255 -119.016650 144 17618ft 369kts
13-Feb-20 19:37 34.311217 -118.944681 142 15511ft 356kts
13-Feb-20 19:38 34.233398 -118.873649 142 13509ft 343kts
13-Feb-20 19:39 34.161539 -118.807019 139 12557ft 304kts
13-Feb-20 19:40 34.100109 -118.740171 137 11469ft 289kts
13-Feb-20 19:41 34.043363 -118.672539 123 10291ft 280kts
13-Feb-20 19:42 34.021859 -118.584471 96 9066ft 275kts
13-Feb-20 19:43 34.014625 -118.504128 97 8306ft 258kts
13-Feb-20 19:44 33.996954 -118.430865 122 7997ft 229kts
13-Feb-20 19:45 33.963485 -118.367550 122 7815ft 213kts
13-Feb-20 19:46 33.935248 -118.312008 116 7034ft 206kts
13-Feb-20 19:47 33.917480 -118.245870 108 6724ft 210kts
13-Feb-20 19:48 33.904196 -118.178325 90 6002ft 205kts
13-Feb-20 19:49 33.910541 -118.108735 84 5982ft 210kts
13-Feb-20 19:50 33.917566 -118.038509 83 5369ft 212kts
13-Feb-20 19:51 33.938775 -117.980071 2 4442ft 205kts
13-Feb-20 19:52 33.981904 -118.014228 276 3628ft 201kts
13-Feb-20 19:53 33.969696 -118.077284 260 3588ft 201kts
13-Feb-20 19:54 33.961752 -118.142076 264 3588ft 180kts
13-Feb-20 19:55 33.955595 -118.203164 264 3148ft 188kts
13-Feb-20 19:56 33.949594 -118.262788 262 2120ft 165kts
13-Feb-20 19:57 33.944086 -118.316974 262 1243ft 163kts
13-Feb-20 19:58 33.938883 -118.367429 262 369ft 147kts
13-Feb-20 19:59 33.936296 -118.398833 292 116ft 22kts
13-Feb-20 20:00 33.936485 -118.399356 292 118ft 7kts
13-Feb-20 20:01 33.936484 -118.403133 285 122ft 9kts
13-Feb-20 20:02 33.938393 -118.405140 306 126ft 7kts
13-Feb-20 20:03 33.940778 -118.405617 353 125ft 13kts
13-Feb-20 20:04 33.941112 -118.406314 261 125ft 0kts
13-Feb-20 20:05 33.941112 -118.406314 261 125ft 0kts

Navigation Log

Ident Type
Flight plan parsing failed, navigation log unavailable